CheckWX is a tool to help pilots better visualize weather data.  It is not intended as a substitute for an official pre-flight weather briefing.

00:44:30 UTC

KFDR METAR
Frederick Regional Airport
Frederick, Oklahoma, USA
Current

52 mins ago

KFDR 112353Z AUTO 01019G28KT 10SM CLR M01/M10 A3054 RMK AO2 PK WND 36033/2255 SLP344 T10111100 11006 21017 53027
Observed
Nov-11 @ 23:53 UTC
Wind
  • 010° at 19 KTS
  • Gusting to 28 KTS
Visibility
10 SM
Flight Rules
VFR
Cloud Levels
  • Clear skies
Temperature
-1°C / 30°F
Dewpoint
-10°C / 14°F
Humidity
51%
Altimeter
30.54" Hg
Pressure
1034.22 hPa
Previous

2 hours ago

KFDR 112253Z AUTO 01028G34KT 10SM SCT080 BKN090 M01/M09 A3050 RMK AO2 PK WND 36034/2232 SLP328 T10061089
Observed
Nov-11 @ 22:53 UTC
Wind
  • 010° at 28 KTS
  • Gusting to 34 KTS
Visibility
10 SM
Flight Rules
VFR
Cloud Levels
  • Scattered at 8,000' AGL
  • Broken at 9,000' AGL
Temperature
-1°C / 30°F
Dewpoint
-9°C / 16°F
Humidity
55%
Altimeter
30.5" Hg
Pressure
1032.82 hPa
Previous

3 hours ago

KFDR 112153Z AUTO 01024G37KT 10SM OVC075 M01/M09 A3048 RMK AO2 PK WND 36037/2136 SLP321 T10111094
Observed
Nov-11 @ 21:53 UTC
Wind
  • 010° at 24 KTS
  • Gusting to 37 KTS
Visibility
10 SM
Flight Rules
VFR
Cloud Levels
  • Overcast at 7,500' AGL
Temperature
-1°C / 30°F
Dewpoint
-9°C / 16°F
Humidity
55%
Altimeter
30.48" Hg
Pressure
1032.22 hPa